Latest Weather Observations for Nuriootpa

IDS60901

Issued at 10:01 pm CST Wednesday 12 August 2020 (issued every 10 minutes, with the page automatically refreshed every 10 minutes)

About weather observations | Map of Adelaide area stations | Latest observations for Adelaide area | Other Formats
Station Details ID: 023373 Name: NURIOOTPA PIRSA Lat: -34.48 Lon: 139.01 Height: 275.0 m
Data from the previous 72 hours. | See also: Recent months at Nuriootpa
Date/Time
CST
Temp
°C
App
Temp
°C
Dew
Point
°C
Rel
Hum
%
Delta-T
°C
Wind Press
QNH
hPa
Press
MSL
hPa
Rain since
9am
mm
Dir  Spd
km/h
Gust
km/h
Spd
kts
Gust
kts
12/10:00pm 11.8 9.5 11.8 100 0.0 NW 15 22 8 12 1009.4 1009.6 4.8
12/09:30pm 11.9 9.6 11.9 100 0.0 WNW 15 20 8 11 1009.4 1009.6 4.6
12/09:00pm 11.5 9.9 11.5 100 0.0 NW 11 17 6 9 1009.1 1009.3 4.6
12/08:30pm 11.8 9.9 11.8 100 0.0 NW 13 20 7 11 1009.0 1009.2 4.6
12/08:00pm 11.6 10.8 11.6 100 0.0 NW 7 11 4 6 1008.7 1008.9 4.6
12/07:30pm 11.6 10.4 11.6 100 0.0 WNW 9 13 5 7 1008.4 1008.6 4.6
12/07:00pm 11.4 10.5 11.4 100 0.0 NNW 7 11 4 6 1008.0 1008.2 4.6
12/06:30pm 11.3 10.4 11.3 100 0.0 WNW 7 11 4 6 1007.6 1007.8 4.6
12/06:00pm 11.8 10.7 11.8 100 0.0 WNW 9 15 5 8 1007.3 1007.5 4.6
12/05:30pm 12.1 10.3 12.1 100 0.0 WNW 13 19 7 10 1006.9 1007.1 4.6
12/05:00pm 12.7 11.5 12.7 100 0.0 WNW 11 15 6 8 1006.8 1007.0 4.6
12/04:30pm 12.8 9.5 12.8 100 0.0 WNW 22 30 12 16 1006.9 1007.1 3.8
12/04:00pm 14.2 12.5 13.7 97 0.3 NW 15 26 8 14 1006.0 1006.2 3.2
12/03:30pm 14.4 12.2 14.4 100 0.0 WNW 19 28 10 15 1005.8 1006.0 3.2
12/03:00pm 14.2 11.3 14.0 99 0.1 WNW 22 35 12 19 1005.8 1006.0 3.2
12/02:30pm 14.4 10.4 14.1 98 0.2 NW 28 43 15 23 1005.6 1005.8 2.0
12/02:00pm 14.6 10.3 14.3 98 0.2 NW 30 43 16 23 1005.6 1005.8 2.0
12/01:30pm 14.5 10.8 14.0 97 0.3 NW 26 43 14 23 1005.7 1005.9 2.0
12/01:00pm 14.4 10.8 14.1 98 0.2 NW 26 35 14 19 1005.9 1006.1 2.0
12/12:30pm 13.7 10.3 13.7 100 0.0 NW 24 35 13 19 1006.1 1006.3 2.0
12/12:00pm 13.5 10.4 13.5 100 0.0 NW 22 35 12 19 1006.5 1006.8 2.0
12/11:30am 12.5 10.1 12.5 100 0.0 NNW 17 28 9 15 1006.9 1007.1 2.0
12/11:00am 11.9 8.7 11.9 100 0.0 NW 20 35 11 19 1007.1 1007.3 1.8
12/10:30am 12.7 10.3 12.7 100 0.0 NW 17 28 9 15 1007.2 1007.4 0.6
12/10:00am 14.1 11.4 13.6 97 0.3 NNW 20 32 11 17 1006.9 1007.1 0.0
12/09:30am 13.7 11.2 13.4 98 0.2 NNW 19 35 10 19 1007.0 1007.2 0.0
12/09:00am 12.6 9.8 12.6 100 0.0 NNW 19 30 10 16 1006.8 1007.0 7.8
12/08:30am 11.6 9.3 11.6 100 0.0 NNW 15 28 8 15 1006.7 1006.9 7.8
12/08:00am 10.4 8.5 10.4 100 0.0 N 11 17 6 9 1006.5 1006.8 7.8
12/07:30am 9.5 8.1 9.5 100 0.0 N 7 13 4 7 1006.4 1006.6 7.8
12/07:00am 8.8 6.8 8.8 100 0.0 N 9 17 5 9 1006.1 1006.3 7.8
12/06:30am 8.0 7.5 8.0 100 0.0 CALM 0 6 0 3 1006.0 1006.2 7.8
12/06:00am 7.8 7.3 7.8 100 0.0 CALM 0 0 0 0 1006.0 1006.2 7.8
12/05:30am 8.9 7.5 8.9 100 0.0 ENE 6 7 3 4 1006.1 1006.3 7.8
12/05:00am 9.5 7.7 9.5 100 0.0 ENE 9 13 5 7 1006.1 1006.3 7.8
12/04:30am 9.6 8.8 9.6 100 0.0 NNE 4 9 2 5 1006.2 1006.4 7.8
12/04:00am 10.1 8.8 10.1 100 0.0 NE 7 9 4 5 1006.5 1006.8 7.8
12/03:30am 10.7 8.5 10.7 100 0.0 NNW 13 20 7 11 1006.9 1007.1 7.2
12/03:00am 10.9 8.6 10.3 96 0.3 NNW 13 22 7 12 1007.2 1007.4 7.2
12/02:30am 10.7 9.6 9.8 94 0.5 N 6 13 3 7 1007.5 1007.7 7.2
12/02:00am 10.7 9.0 9.8 94 0.5 N 9 17 5 9 1007.8 1008.0 7.2
12/01:30am 9.1 7.6 9.1 100 0.0 E 7 11 4 6 1007.9 1008.1 7.2
12/01:00am 8.9 7.3 8.9 100 0.0 NE 7 13 4 7 1007.9 1008.1 7.2
12/12:30am 9.0 6.7 9.0 100 0.0 NE 11 15 6 8 1007.7 1007.9 7.2
12/12:00am 9.1 6.1 9.1 100 0.0 NE 15 19 8 10 1007.6 1007.8 7.2
 
Date/Time
CST
Temp
°C
App
Temp
°C
Dew
Point
°C
Rel
Hum
%
Delta-T
°C
Wind Press
QNH
hPa
Press
MSL
hPa
Rain since
9am
mm
Dir  Spd
km/h
Gust
km/h
Spd
kts
Gust
kts
11/11:30pm 8.3 6.2 8.3 100 0.0 ENE 9 13 5 7 1007.9 1008.1 7.2
11/11:00pm 8.1 6.0 8.1 100 0.0 ENE 9 13 5 7 1008.0 1008.2 7.2
11/10:30pm 8.3 6.2 8.3 100 0.0 NE 9 17 5 9 1008.3 1008.5 7.2
11/10:00pm 8.6 6.2 8.6 100 0.0 NE 11 15 6 8 1008.4 1008.6 7.2
11/09:30pm 9.1 6.8 9.1 100 0.0 ENE 11 15 6 8 1008.6 1008.8 7.2
11/09:00pm 9.3 7.1 9.3 100 0.0 NE 11 15 6 8 1008.6 1008.8 7.2
11/08:30pm 9.3 7.1 9.3 100 0.0 NE 11 15 6 8 1008.8 1009.0 7.2
11/08:00pm 9.1 7.2 9.1 100 0.0 ENE 9 13 5 7 1008.9 1009.1 7.2
11/07:30pm 9.5 7.3 9.5 100 0.0 NE 11 17 6 9 1008.8 1009.0 7.2
11/07:00pm 9.9 7.8 9.9 100 0.0 NE 11 15 6 8 1008.7 1008.9 7.2
11/06:30pm 10.4 8.1 10.4 100 0.0 NNE 13 17 7 9 1008.4 1008.6 7.2
11/06:00pm 10.5 8.2 10.5 100 0.0 NE 13 20 7 11 1008.1 1008.3 7.2
11/05:30pm 10.7 8.1 10.7 100 0.0 NNE 15 24 8 13 1007.9 1008.1 7.2
11/05:00pm 11.1 8.1 10.8 98 0.2 NNE 17 28 9 15 1007.7 1007.9 7.2
11/04:30pm 11.1 7.8 10.9 99 0.1 N 19 28 10 15 1007.5 1007.7 7.2
11/04:00pm 11.1 8.2 11.1 100 0.0 NNE 17 26 9 14 1007.5 1007.7 7.2
11/03:30pm 10.6 7.6 10.6 100 0.0 NNE 17 26 9 14 1007.6 1007.8 7.2
11/03:00pm 10.3 6.8 10.3 100 0.0 NNE 19 28 10 15 1007.9 1008.1 7.2
11/02:30pm 10.0 7.2 10.0 100 0.0 NNE 15 22 8 12 1008.1 1008.3 7.2
11/02:00pm 10.0 7.6 10.0 100 0.0 NNE 13 20 7 11 1008.5 1008.7 5.8
11/01:30pm 10.1 8.1 10.1 100 0.0 NNE 11 17 6 9 1008.9 1009.1 3.6
11/01:00pm 10.2 7.8 10.2 100 0.0 N 13 20 7 11 1009.5 1009.8 2.2
11/12:30pm 10.1 8.1 10.1 100 0.0 NNE 11 17 6 9 1009.7 1010.0 1.8
11/12:00pm 10.7 8.2 9.8 94 0.5 NNE 13 17 7 9 1010.5 1010.7 0.0
11/11:30am 10.6 7.8 10.0 96 0.3 NE 15 20 8 11 1010.3 1010.6 0.0
11/11:00am 10.8 7.4 9.2 90 0.8 NE 17 26 9 14 1011.1 1011.3 0.0
11/10:30am 10.7 7.8 9.5 92 0.6 NE 15 22 8 12 1011.1 1011.3 0.0
11/10:00am 10.8 7.4 9.1 89 0.9 NE 17 28 9 15 1011.5 1011.7 0.0
11/09:30am 10.5 8.3 9.4 93 0.6 NE 11 19 6 10 1011.8 1012.0 0.0
11/09:00am 10.5 7.5 9.1 91 0.7 NE 15 20 8 11 1012.1 1012.3 0.0
11/08:30am 10.4 7.7 8.8 90 0.8 NE 13 19 7 10 1012.6 1012.9 0.0
11/08:00am 9.9 7.6 9.0 94 0.5 ENE 11 17 6 9 1012.3 1012.5 0.0
11/07:30am 9.2 7.2 8.6 96 0.3 E 9 13 5 7 1012.5 1012.7 0.0
11/07:00am 9.6 7.6 8.5 93 0.5 NE 9 11 5 6 1012.8 1013.1 0.0
11/06:30am 9.8 7.7 8.4 91 0.7 NE 9 11 5 6 1012.9 1013.2 0.0
11/06:00am 9.5 7.4 8.4 93 0.5 NE 9 13 5 7 1013.1 1013.4 0.0
11/05:30am 8.8 6.3 8.2 96 0.3 ENE 11 15 6 8 1013.0 1013.3 0.0
11/05:00am 9.1 7.1 8.5 96 0.3 ENE 9 11 5 6 1013.2 1013.5 0.0
11/04:30am 9.6 7.6 8.7 94 0.4 NE 9 13 5 7 1013.7 1014.0 0.0
11/04:00am 10.1 8.1 8.7 91 0.7 N 9 19 5 10 1014.5 1014.7 0.0
11/03:30am 10.2 7.8 8.8 91 0.7 NNE 11 17 6 9 1014.1 1014.4 0.0
11/03:00am 10.2 7.5 8.8 91 0.7 NE 13 20 7 11 1013.5 1013.8 0.0
11/02:30am 9.9 7.5 8.7 92 0.6 ENE 11 15 6 8 1013.5 1013.8 0.0
11/02:00am 10.6 7.5 8.7 88 0.9 ENE 15 20 8 11 1013.4 1013.7 0.0
11/01:30am 10.7 7.9 8.5 86 1.1 NE 13 20 7 11 1014.6 1014.8 0.0
11/01:00am 11.1 8.3 8.7 85 1.2 NE 13 19 7 10 1014.9 1015.1 0.0
11/12:30am 11.5 7.4 8.7 83 1.4 NE 20 32 11 17 1015.1 1015.3 0.0
11/12:00am 11.5 7.6 8.5 82 1.5 NE 19 28 10 15 1014.9 1015.1 0.0
 
Date/Time
CST
Temp
°C
App
Temp
°C
Dew
Point
°C
Rel
Hum
%
Delta-T
°C
Wind Press
QNH
hPa
Press
MSL
hPa
Rain since
9am
mm
Dir  Spd
km/h
Gust
km/h
Spd
kts
Gust
kts
10/11:30pm 11.9 7.8 8.7 81 1.6 NNE 20 35 11 19 1015.3 1015.5 0.0
10/11:00pm 11.8 7.7 8.8 82 1.5 NE 20 28 11 15 1015.2 1015.4 0.0
10/10:30pm 11.5 8.8 9.1 85 1.2 NE 13 19 7 10 1015.9 1016.2 0.0
10/10:00pm 11.3 8.7 9.4 88 1.0 NE 13 17 7 9 1015.9 1016.2 0.0
10/09:30pm 11.2 9.1 9.8 91 0.7 NNE 11 19 6 10 1016.3 1016.6 0.0
10/09:00pm 11.2 8.8 10.0 92 0.6 NE 13 19 7 10 1016.4 1016.7 0.0
10/08:30pm 11.6 8.4 10.0 90 0.8 NE 17 22 9 12 1015.8 1016.1 0.0
10/08:00pm 11.7 8.1 9.9 89 0.9 NE 19 26 10 14 1016.1 1016.4 0.0
10/07:30pm 11.7 8.9 9.9 89 0.9 NE 15 20 8 11 1016.1 1016.4 0.0
10/07:00pm 11.9 8.7 10.0 88 1.0 NE 17 26 9 14 1015.7 1016.0 0.0
10/06:30pm 12.1 9.3 10.0 87 1.1 NE 15 20 8 11 1015.6 1015.8 0.0
10/06:00pm 12.2 9.4 10.1 87 1.1 NE 15 24 8 13 1015.9 1016.2 0.0
10/05:30pm 12.5 10.1 10.0 85 1.3 NE 13 19 7 10 1016.0 1016.3 0.0
10/05:00pm 13.1 10.4 10.3 83 1.5 NE 15 19 8 10 1016.0 1016.3 0.0
10/04:30pm 13.8 10.7 10.4 80 1.8 NNE 17 24 9 13 1016.3 1016.6 0.0
10/04:00pm 14.5 11.1 10.7 78 2.0 NNE 19 26 10 14 1016.4 1016.7 0.0
10/03:30pm 14.1 11.4 10.3 78 2.0 NNE 15 24 8 13 1016.9 1017.2 0.0
10/03:00pm 14.5 11.3 9.9 74 2.4 NNE 17 28 9 15 1017.1 1017.4 0.0
10/02:30pm 14.6 11.0 10.6 77 2.1 NNE 20 28 11 15 1017.3 1017.6 0.0
10/02:00pm 14.1 10.9 10.1 77 2.1 NNE 17 28 9 15 1017.9 1018.2 0.0
10/01:30pm 13.9 10.4 10.1 78 2.0 NNE 19 28 10 15 1018.6 1018.8 0.0
10/01:00pm 13.3 9.7 9.9 80 1.8 NNE 19 30 10 16 1019.2 1019.5 0.0
10/12:30pm 12.7 9.3 9.3 80 1.7 NE 17 30 9 16 1019.5 1019.8 0.0
10/12:00pm 12.3 7.9 9.1 81 1.6 NE 22 32 12 17 1019.8 1020.1 0.0
10/11:30am 11.9 8.0 9.5 85 1.2 ENE 20 32 11 17 1020.0 1020.3 0.0
10/11:00am 11.7 8.2 8.9 83 1.4 NE 17 24 9 13 1020.5 1020.8 0.0
10/10:30am 11.0 7.4 8.4 84 1.3 NE 17 24 9 13 1020.8 1021.1 0.0
10/10:00am 10.7 7.8 8.3 85 1.2 NE 13 17 7 9 1020.9 1021.2 0.0
10/09:30am 10.2 7.2 7.6 84 1.3 NE 13 20 7 11 1021.1 1021.4 0.0
10/09:00am 10.1 8.1 8.7 91 0.7 NE 9 13 5 7 1021.3 1021.6 0.0
10/08:30am 9.4 8.2 9.4 100 0.0 NE 6 9 3 5 1021.1 1021.4 0.0
10/08:00am 7.8 6.5 7.8 100 0.0 ENE 4 9 2 5 1020.9 1021.2 0.0
10/07:30am 7.3 6.7 7.3 100 0.0 CALM 0 0 0 0 1020.9 1021.2 0.0
10/07:00am 7.2 6.6 7.2 100 0.0 CALM 0 0 0 0 1020.9 1021.2 0.0
10/06:30am 7.1 6.4 7.1 100 0.0 CALM 0 0 0 0 1020.8 1021.1 0.0
10/06:00am 7.3 6.7 7.3 100 0.0 CALM 0 0 0 0 1020.7 1021.0 0.0
10/05:30am 7.4 6.8 7.4 100 0.0 CALM 0 0 0 0 1020.5 1020.8 0.0
10/05:00am 7.5 6.9 7.5 100 0.0 CALM 0 0 0 0 1020.6 1020.9 0.0
10/04:30am 7.5 6.9 7.5 100 0.0 CALM 0 0 0 0 1020.7 1021.0 0.0
10/04:00am 7.5 6.9 7.5 100 0.0 CALM 0 0 0 0 1020.6 1020.9 0.0
10/03:30am 7.5 6.5 7.5 100 0.0 ENE 2 9 1 5 1020.5 1020.8 0.0
10/03:00am 7.7 7.2 7.7 100 0.0 CALM 0 0 0 0 1020.6 1020.9 0.0
10/02:30am 7.6 7.0 7.6 100 0.0 CALM 0 0 0 0 1020.9 1021.2 0.0
10/02:00am 7.9 7.0 7.9 100 0.0 E 2 7 1 4 1021.0 1021.3 0.0
10/01:30am 7.9 7.4 7.9 100 0.0 CALM 0 0 0 0 1021.0 1021.3 0.0
10/01:00am 8.7 8.4 8.7 100 0.0 CALM 0 6 0 3 1021.0 1021.3 0.0
10/12:30am 9.0 8.4 9.0 100 0.0 WNW 2 7 1 4 1021.3 1021.6 0.0
10/12:00am 9.0 7.5 9.0 100 0.0 NW 7 7 4 4 1021.5 1021.8 0.0
 
Date/Time
CST
Temp
°C
App
Temp
°C
Dew
Point
°C
Rel
Hum
%
Delta-T
°C
Wind Press
QNH
hPa
Press
MSL
hPa
Rain since
9am
mm
Dir  Spd
km/h
Gust
km/h
Spd
kts
Gust
kts
09/11:30pm 9.1 8.9 9.1 100 0.0 CALM 0 0 0 0 1021.7 1022.1 0.0
09/11:00pm 9.1 8.9 9.1 100 0.0 CALM 0 0 0 0 1021.7 1022.1 0.0
09/10:30pm 9.3 9.2 9.3 100 0.0 CALM 0 0 0 0 1021.7 1022.1 0.0

Latest Capital City Observations: Canberra | Sydney | Melbourne | Brisbane | Adelaide | Perth | Hobart | Darwin

Other formats

Comma delimited format used in spreadsheet applications
http://www.bom.gov.au/fwo/IDS60901/IDS60901.94681.axf

JavaScript Object Notation format (JSON) in row-major order
http://www.bom.gov.au/fwo/IDS60901/IDS60901.94681.json

Data quality

Most of these data are generated automatically and are frequently updated. Quality checks on data are not normally performed. It is possible for incorrect values to appear. Refer to information at About Latest Weather Observations and please check the disclaimer before using these data.